createdAt,value
2022-09-23T00:02:10.878Z,6.49
2022-09-23T00:04:39.000Z,6.39
2022-09-23T00:07:08.878Z,6.53
2022-09-23T00:09:36.847Z,6.54
2022-09-23T00:12:08.839Z,6.66
2022-09-23T00:14:38.932Z,6.72
2022-09-23T00:17:07.166Z,6.65
2022-09-23T00:19:35.426Z,6.52
2022-09-23T00:22:03.397Z,6.49
2022-09-23T00:24:33.560Z,6.32
2022-09-23T00:27:02.672Z,5.98
2022-09-23T00:29:37.820Z,6.10
2022-09-23T00:32:06.118Z,6.05
2022-09-23T00:34:34.182Z,6.24
2022-09-23T00:37:02.194Z,6.28
2022-09-23T00:39:30.341Z,6.21
2022-09-23T00:41:59.781Z,6.01
2022-09-23T00:44:44.760Z,6.21
2022-09-23T00:47:17.934Z,6.25
2022-09-23T00:49:48.123Z,6.07
2022-09-23T00:52:19.492Z,5.69
2022-09-23T00:54:48.658Z,5.74
2022-09-23T00:57:20.262Z,5.46
2022-09-23T00:59:50.236Z,5.71
2022-09-23T01:02:21.091Z,5.93
2022-09-23T01:04:51.065Z,5.80
2022-09-23T01:07:19.247Z,5.53
2022-09-23T01:09:49.837Z,5.80
2022-09-23T01:12:32.745Z,5.94
2022-09-23T01:15:10.575Z,5.86
2022-09-23T01:17:45.409Z,5.87
2022-09-23T01:20:56.403Z,5.83
2022-09-23T01:23:45.342Z,5.90
2022-09-23T01:26:35.699Z,5.93
2022-09-23T01:29:28.062Z,6.00
2022-09-23T01:32:04.864Z,6.04
2022-09-23T01:34:37.803Z,6.11
2022-09-23T01:37:11.755Z,6.15
2022-09-23T01:39:44.071Z,5.97
2022-09-23T01:42:18.834Z,6.01
2022-09-23T01:44:52.709Z,5.98
2022-09-23T01:47:31.628Z,5.63
2022-09-23T01:50:24.655Z,5.45
2022-09-23T01:52:55.689Z,5.66
2022-09-23T01:55:28.214Z,5.29
2022-09-23T01:58:02.667Z,5.34
2022-09-23T02:00:34.310Z,5.31
2022-09-23T02:03:13.259Z,5.46
2022-09-23T02:05:47.261Z,5.56
2022-09-23T02:08:25.923Z,5.40
2022-09-23T02:10:58.775Z,5.27
2022-09-23T02:13:33.117Z,5.31
2022-09-23T02:16:09.000Z,5.11
2022-09-23T02:18:42.316Z,5.02
2022-09-23T02:21:11.552Z,5.17
2022-09-23T02:23:45.016Z,5.39
2022-09-23T02:26:22.362Z,5.43
2022-09-23T02:28:56.673Z,5.40
2022-09-23T02:31:34.221Z,5.35
2022-09-23T02:34:12.834Z,5.42
2022-09-23T02:36:50.961Z,5.00
2022-09-23T02:39:21.875Z,5.11
2022-09-23T02:41:57.994Z,5.01
2022-09-23T02:44:26.311Z,5.17
2022-09-23T02:46:57.041Z,5.27
2022-09-23T02:49:29.403Z,5.31
2022-09-23T02:51:58.850Z,5.14
2022-09-23T02:54:29.419Z,5.08
2022-09-23T02:56:57.437Z,5.21
2022-09-23T02:59:25.940Z,5.22
2022-09-23T03:02:35.546Z,5.34
2022-09-23T03:05:12.894Z,5.35
2022-09-23T03:07:49.978Z,5.39
2022-09-23T03:10:24.194Z,5.21
2022-09-23T03:13:00.637Z,5.17
2022-09-23T03:15:39.182Z,5.17
2022-09-23T03:18:14.781Z,5.15
2022-09-23T03:20:57.158Z,5.11
2022-09-23T03:23:30.135Z,5.02
2022-09-23T03:26:01.307Z,4.94
2022-09-23T03:28:30.304Z,4.88
2022-09-23T03:31:00.823Z,4.62
2022-09-23T03:33:29.281Z,4.84
2022-09-23T03:36:21.126Z,4.90
2022-09-23T03:38:52.381Z,4.90
2022-09-23T03:41:29.051Z,4.87
2022-09-23T03:43:58.833Z,4.64
2022-09-23T03:46:30.203Z,4.54
2022-09-23T03:49:05.498Z,4.76
2022-09-23T03:51:34.937Z,4.79
2022-09-23T03:54:03.030Z,4.91
2022-09-23T03:56:31.122Z,4.85
2022-09-23T03:58:59.210Z,4.84
2022-09-23T04:01:27.283Z,4.95
2022-09-23T04:03:55.380Z,4.87
2022-09-23T04:06:23.693Z,4.76
2022-09-23T04:08:53.282Z,4.46
2022-09-23T04:11:21.318Z,4.32
2022-09-23T04:13:49.359Z,4.15
2022-09-23T04:16:17.667Z,4.09
2022-09-23T04:18:45.911Z,4.12
2022-09-23T04:21:14.376Z,3.99
2022-09-23T04:23:42.701Z,4.19
2022-09-23T04:26:12.655Z,4.06
2022-09-23T04:28:40.848Z,3.99
2022-09-23T04:31:10.092Z,3.99
2022-09-23T04:33:38.786Z,4.06
2022-09-23T04:36:07.324Z,4.19
2022-09-23T04:38:35.932Z,4.29
2022-09-23T04:41:04.123Z,4.28
2022-09-23T04:43:33.546Z,4.39
2022-09-23T04:46:02.544Z,4.49
2022-09-23T04:48:31.183Z,4.56
2022-09-23T04:51:03.472Z,4.59
2022-09-23T04:53:32.210Z,4.57
2022-09-23T04:56:03.065Z,4.59
2022-09-23T04:58:31.209Z,4.67
2022-09-23T05:01:08.697Z,4.77
2022-09-23T05:03:36.873Z,4.81
2022-09-23T05:06:05.652Z,4.80
2022-09-23T05:08:33.756Z,4.92
2022-09-23T05:11:04.976Z,5.01
2022-09-23T05:13:33.588Z,5.05
2022-09-23T05:16:05.120Z,5.05
2022-09-23T05:18:33.576Z,5.02
2022-09-23T05:21:02.121Z,5.04
2022-09-23T05:23:30.800Z,5.01
2022-09-23T05:26:00.220Z,5.00
2022-09-23T05:28:33.027Z,5.04
2022-09-23T05:31:06.946Z,5.19
2022-09-23T05:33:35.438Z,5.36
2022-09-23T05:36:04.882Z,5.40
2022-09-23T05:38:33.545Z,5.49
2022-09-23T05:41:03.434Z,5.63
2022-09-23T05:43:32.387Z,5.78
2022-09-23T05:46:08.157Z,5.89
2022-09-23T05:48:37.511Z,6.13
2022-09-23T05:51:12.842Z,6.15
2022-09-23T05:53:45.015Z,6.24
2022-09-23T05:56:13.585Z,6.18
2022-09-23T05:58:41.976Z,6.24
2022-09-23T06:01:12.729Z,6.31
2022-09-23T06:03:41.281Z,6.41
2022-09-23T06:06:14.684Z,6.53
2022-09-23T06:08:43.198Z,6.69
2022-09-23T06:11:13.922Z,6.79
2022-09-23T06:13:43.407Z,7.04
2022-09-23T06:16:14.789Z,7.22
2022-09-23T06:18:43.945Z,7.36
2022-09-23T06:21:18.676Z,7.52
2022-09-23T06:23:47.186Z,7.73
2022-09-23T06:26:16.901Z,7.84
2022-09-23T06:28:46.162Z,7.98
2022-09-23T06:31:17.689Z,8.17
2022-09-23T06:33:47.087Z,8.32
2022-09-23T06:36:27.355Z,8.52
2022-09-23T06:39:03.000Z,8.63
2022-09-23T06:41:31.314Z,8.72
2022-09-23T06:43:59.544Z,8.79
2022-09-23T06:46:31.375Z,8.82
2022-09-23T06:49:01.251Z,8.96
2022-09-23T06:51:29.682Z,9.00
2022-09-23T06:53:58.106Z,9.45
2022-09-23T06:56:26.311Z,9.41
2022-09-23T06:58:54.899Z,9.58
2022-09-23T07:01:23.386Z,9.65
2022-09-23T07:03:55.856Z,9.71
2022-09-23T07:06:24.062Z,9.68
2022-09-23T07:08:54.168Z,9.87
2022-09-23T07:11:22.698Z,9.93
2022-09-23T07:13:51.347Z,10.07
2022-09-23T07:16:20.261Z,9.94
2022-09-23T07:18:48.373Z,10.13
2022-09-23T07:21:19.394Z,10.34
2022-09-23T07:23:50.476Z,10.62
2022-09-23T07:26:20.251Z,10.59
2022-09-23T07:28:48.413Z,10.83
2022-09-23T07:31:29.594Z,10.99
2022-09-23T07:34:03.012Z,10.93
2022-09-23T07:36:33.446Z,11.20
2022-09-23T07:39:03.644Z,11.31
2022-09-23T07:41:33.503Z,11.51
2022-09-23T07:44:03.172Z,11.48
2022-09-23T07:46:33.277Z,11.63
2022-09-23T07:49:02.141Z,11.83
2022-09-23T07:51:36.449Z,11.91
2022-09-23T07:54:08.099Z,12.08
2022-09-23T07:56:37.523Z,12.10
2022-09-23T07:59:10.662Z,12.32
2022-09-23T08:01:40.579Z,12.39
2022-09-23T08:04:11.897Z,12.61
2022-09-23T08:06:43.909Z,12.71
2022-09-23T08:09:12.936Z,12.87
2022-09-23T08:11:43.931Z,12.92
2022-09-23T08:14:16.077Z,12.88
2022-09-23T08:16:45.519Z,13.08
2022-09-23T08:19:13.902Z,13.13
2022-09-23T08:21:43.734Z,13.25
2022-09-23T08:24:15.389Z,13.29
2022-09-23T08:26:43.573Z,13.42
2022-09-23T08:29:13.736Z,13.36
2022-09-23T08:31:42.203Z,13.60
2022-09-23T08:34:10.763Z,13.78
2022-09-23T08:36:39.476Z,13.77
2022-09-23T08:39:09.159Z,13.92
2022-09-23T08:41:44.934Z,14.08
2022-09-23T08:44:15.082Z,13.88
2022-09-23T08:46:50.289Z,14.08
2022-09-23T08:49:25.736Z,14.09
2022-09-23T08:51:56.026Z,14.26
2022-09-23T08:54:30.939Z,14.32
2022-09-23T08:57:04.821Z,14.60
2022-09-23T08:59:39.187Z,14.57
2022-09-23T09:02:16.594Z,14.70
2022-09-23T09:04:47.070Z,14.85
2022-09-23T09:07:37.097Z,14.90
2022-09-23T09:10:16.747Z,14.94
2022-09-23T09:12:46.739Z,15.12
2022-09-23T09:15:17.577Z,15.01
2022-09-23T09:17:55.033Z,15.10
2022-09-23T09:20:26.048Z,14.95
2022-09-23T09:22:57.895Z,15.25
2022-09-23T09:25:38.089Z,15.58
2022-09-23T09:28:15.892Z,15.62
2022-09-23T09:30:48.552Z,15.60
2022-09-23T09:33:19.074Z,15.80
2022-09-23T09:35:59.843Z,15.90
2022-09-23T09:38:28.538Z,15.91
2022-09-23T09:41:10.980Z,15.63
2022-09-23T09:43:44.018Z,15.77
2022-09-23T09:46:29.454Z,16.07
2022-09-23T09:49:04.113Z,15.83
2022-09-23T09:51:32.328Z,16.34
2022-09-23T09:54:21.239Z,16.52
2022-09-23T09:56:52.023Z,16.53
2022-09-23T09:59:27.510Z,16.48
2022-09-23T10:02:31.107Z,16.22
2022-09-23T10:05:02.274Z,16.44
2022-09-23T10:07:32.371Z,16.79
2022-09-23T10:10:31.824Z,16.86
2022-09-23T10:13:15.843Z,16.61
2022-09-23T10:15:45.791Z,16.97
2022-09-23T10:18:21.260Z,17.14
2022-09-23T10:20:50.665Z,17.04
2022-09-23T10:23:31.307Z,17.20
2022-09-23T10:26:03.801Z,17.37
2022-09-23T10:28:41.316Z,17.45
2022-09-23T10:31:13.037Z,17.47
2022-09-23T10:33:49.942Z,17.44
2022-09-23T10:36:18.801Z,17.55
2022-09-23T10:39:18.926Z,17.39
2022-09-23T10:42:18.339Z,17.78
2022-09-23T10:45:18.875Z,17.82
2022-09-23T10:47:56.138Z,17.97
2022-09-23T10:50:39.133Z,17.48
2022-09-23T10:53:17.026Z,17.89
2022-09-23T10:56:13.492Z,17.92
2022-09-23T10:59:03.770Z,17.85
2022-09-23T11:01:41.342Z,17.92
2022-09-23T11:04:44.068Z,17.99
2022-09-23T11:07:23.894Z,18.03
2022-09-23T11:10:41.972Z,18.02
2022-09-23T11:13:16.618Z,18.06
2022-09-23T11:15:56.865Z,17.96
2022-09-23T11:18:40.756Z,17.96
2022-09-23T11:21:27.962Z,18.51
2022-09-23T11:24:18.446Z,18.58
2022-09-23T11:26:54.258Z,18.51
2022-09-23T11:29:36.553Z,18.47
2022-09-23T11:32:31.610Z,18.94
2022-09-23T11:35:13.157Z,19.00
2022-09-23T11:37:47.715Z,19.36
2022-09-23T11:40:20.296Z,18.95
2022-09-23T11:42:56.414Z,18.85
2022-09-23T11:45:28.527Z,18.99
2022-09-23T11:48:03.670Z,19.10
2022-09-23T11:50:38.888Z,19.30
2022-09-23T11:53:14.378Z,19.30
2022-09-23T11:55:55.877Z,19.53
2022-09-23T11:58:31.697Z,19.68
2022-09-23T12:01:04.109Z,19.41
2022-09-23T12:03:44.655Z,19.20
2022-09-23T12:06:19.405Z,18.62
2022-09-23T12:08:51.615Z,19.06
2022-09-23T12:11:26.674Z,18.91
2022-09-23T12:14:03.114Z,19.09
2022-09-23T12:16:50.879Z,19.27
2022-09-23T12:19:34.220Z,19.07
2022-09-23T12:22:24.244Z,19.26
2022-09-23T12:24:58.808Z,18.76
2022-09-23T12:27:36.526Z,18.96
2022-09-23T12:30:08.053Z,18.26
2022-09-23T12:32:36.289Z,18.78
2022-09-23T12:35:04.662Z,18.72
2022-09-23T12:37:38.431Z,18.68
2022-09-23T12:40:10.755Z,18.57
2022-09-23T12:42:46.419Z,18.58
2022-09-23T12:45:37.429Z,18.29
2022-09-23T12:48:26.511Z,18.07
2022-09-23T12:51:17.040Z,18.14
2022-09-23T12:53:58.764Z,18.10
2022-09-23T12:56:58.937Z,18.04
2022-09-23T12:59:29.054Z,17.83
2022-09-23T13:01:58.149Z,17.41
2022-09-23T13:04:51.638Z,17.38
2022-09-23T13:07:26.481Z,17.48
2022-09-23T13:09:59.476Z,17.72
2022-09-23T13:12:32.845Z,17.69
2022-09-23T13:15:05.763Z,17.41
2022-09-23T13:17:37.926Z,17.58
2022-09-23T13:20:27.125Z,17.68
2022-09-23T13:23:22.347Z,17.54
2022-09-23T13:25:53.976Z,17.18
2022-09-23T13:28:34.737Z,17.52
2022-09-23T13:31:07.563Z,17.68
2022-09-23T13:33:42.686Z,17.49
2022-09-23T13:36:14.716Z,17.87
2022-09-23T13:38:43.275Z,17.95
2022-09-23T13:41:16.689Z,17.86
2022-09-23T13:43:48.884Z,17.86
2022-09-23T13:46:20.230Z,17.78
2022-09-23T13:48:51.896Z,17.82
2022-09-23T13:51:26.129Z,18.07
2022-09-23T13:53:56.109Z,18.10
2022-09-23T13:56:27.397Z,18.13
2022-09-23T13:58:56.841Z,17.31
2022-09-23T14:01:32.448Z,17.47
2022-09-23T14:04:02.335Z,16.65
2022-09-23T14:06:31.886Z,17.10
2022-09-23T14:09:03.479Z,17.20
2022-09-23T14:11:35.768Z,17.58
2022-09-23T14:14:07.287Z,17.47
2022-09-23T14:16:39.262Z,17.76
2022-09-23T14:19:08.127Z,18.00
2022-09-23T14:21:37.690Z,17.90
2022-09-23T14:24:17.774Z,18.14
2022-09-23T14:26:50.109Z,17.90
2022-09-23T14:29:20.509Z,18.06
2022-09-23T14:32:00.284Z,17.75
2022-09-23T14:34:48.191Z,17.62
2022-09-23T14:37:45.503Z,17.07
2022-09-23T14:40:19.647Z,16.96
2022-09-23T14:42:53.832Z,16.96
2022-09-23T14:45:29.477Z,17.24
2022-09-23T14:48:01.206Z,17.07
2022-09-23T14:50:39.826Z,16.94
2022-09-23T14:53:40.965Z,17.03
2022-09-23T14:56:12.719Z,16.63
2022-09-23T14:58:52.435Z,16.96
2022-09-23T15:01:27.777Z,17.27
2022-09-23T15:03:57.709Z,17.04
2022-09-23T15:06:28.651Z,17.10
2022-09-23T15:08:57.878Z,16.99
2022-09-23T15:11:27.571Z,17.06
2022-09-23T15:14:05.420Z,16.79
2022-09-23T15:16:43.405Z,16.83
2022-09-23T15:19:19.673Z,16.79
2022-09-23T15:21:53.789Z,16.99
2022-09-23T15:24:44.885Z,17.07
2022-09-23T15:27:29.055Z,17.09
2022-09-23T15:30:05.046Z,16.92
2022-09-23T15:32:33.306Z,17.16
2022-09-23T15:35:01.347Z,16.83
2022-09-23T15:37:32.939Z,16.87
2022-09-23T15:40:04.783Z,17.00
2022-09-23T15:42:33.115Z,17.00
2022-09-23T15:45:03.194Z,17.04
2022-09-23T15:47:33.163Z,17.16
2022-09-23T15:50:03.334Z,17.10
2022-09-23T15:52:31.504Z,17.24
2022-09-23T15:54:59.726Z,17.31
2022-09-23T15:57:28.799Z,17.32
2022-09-23T15:59:58.501Z,17.48
2022-09-23T16:02:28.359Z,17.41
2022-09-23T16:04:57.445Z,17.38
2022-09-23T16:07:25.754Z,17.21
2022-09-23T16:09:59.978Z,16.99
2022-09-23T16:12:28.147Z,17.17
2022-09-23T16:14:58.244Z,17.17
2022-09-23T16:17:29.204Z,17.17
2022-09-23T16:19:57.332Z,17.13
2022-09-23T16:22:25.547Z,16.99
2022-09-23T16:24:59.793Z,16.75
2022-09-23T16:27:28.897Z,16.89
2022-09-23T16:29:57.183Z,16.71
2022-09-23T16:32:25.490Z,16.45
2022-09-23T16:34:58.108Z,15.97
2022-09-23T16:37:26.279Z,16.14
2022-09-23T16:39:55.013Z,16.03
2022-09-23T16:42:29.281Z,15.35
2022-09-23T16:44:57.753Z,15.04
2022-09-23T16:47:25.894Z,15.02
2022-09-23T16:49:57.499Z,15.14
2022-09-23T16:52:26.763Z,14.80
2022-09-23T16:54:55.891Z,14.80
2022-09-23T16:57:25.056Z,14.53
2022-09-23T17:00:10.294Z,14.73
2022-09-23T17:02:57.565Z,14.70
2022-09-23T17:05:27.599Z,14.72
2022-09-23T17:07:55.680Z,14.70
2022-09-23T17:10:24.293Z,14.50
2022-09-23T17:12:54.601Z,14.32
2022-09-23T17:15:22.749Z,14.07
2022-09-23T17:17:52.998Z,13.74
2022-09-23T17:20:22.080Z,13.29
2022-09-23T17:22:51.515Z,12.71
2022-09-23T17:25:19.770Z,12.19
2022-09-23T17:27:49.578Z,11.81
2022-09-23T17:30:17.892Z,11.48
2022-09-23T17:32:45.956Z,11.12
2022-09-23T17:35:14.107Z,10.65
2022-09-23T17:37:42.554Z,10.92
2022-09-23T17:40:12.817Z,11.07
2022-09-23T17:42:42.466Z,11.31
2022-09-23T17:45:12.637Z,11.64
2022-09-23T17:47:41.787Z,11.88
2022-09-23T17:50:10.711Z,11.96
2022-09-23T17:52:38.939Z,12.09
2022-09-23T17:55:08.965Z,12.05
2022-09-23T17:57:39.753Z,12.01
2022-09-23T18:00:10.262Z,11.86
2022-09-23T18:02:40.759Z,11.75
2022-09-23T18:05:09.692Z,11.68
2022-09-23T18:07:37.928Z,11.47
2022-09-23T18:10:07.134Z,11.09
2022-09-23T18:12:35.348Z,11.22
2022-09-23T18:15:06.552Z,11.24
2022-09-23T18:17:34.697Z,11.26
2022-09-23T18:20:08.186Z,11.23
2022-09-23T18:22:36.416Z,10.91
2022-09-23T18:25:22.755Z,11.02
2022-09-23T18:27:52.962Z,11.02
2022-09-23T18:30:24.102Z,11.00
2022-09-23T18:32:52.632Z,10.99
2022-09-23T18:35:22.761Z,10.78
2022-09-23T18:37:50.877Z,10.73
2022-09-23T18:40:19.941Z,10.71
2022-09-23T18:42:50.422Z,10.52
2022-09-23T18:45:18.695Z,9.82
2022-09-23T18:48:05.341Z,9.65
2022-09-23T18:50:43.400Z,9.04
2022-09-23T18:53:11.990Z,9.23
2022-09-23T18:55:40.834Z,9.61
2022-09-23T18:58:13.380Z,9.69
2022-09-23T19:00:42.176Z,9.74
2022-09-23T19:03:11.997Z,9.66
2022-09-23T19:05:40.158Z,9.69
2022-09-23T19:08:08.987Z,9.69
2022-09-23T19:10:37.250Z,9.69
2022-09-23T19:13:05.395Z,9.55
2022-09-23T19:15:34.385Z,9.35
2022-09-23T19:18:02.528Z,9.08
2022-09-23T19:20:32.345Z,8.93
2022-09-23T19:23:00.470Z,9.11
2022-09-23T19:25:28.728Z,9.27
2022-09-23T19:27:57.284Z,8.76
2022-09-23T19:30:26.238Z,8.84
2022-09-23T19:32:54.329Z,8.99
2022-09-23T19:35:22.690Z,8.87
2022-09-23T19:37:54.243Z,9.00
2022-09-23T19:40:22.569Z,8.79
2022-09-23T19:42:53.419Z,8.69
2022-09-23T19:45:21.974Z,8.89
2022-09-23T19:47:55.978Z,9.03
2022-09-23T19:50:24.383Z,9.04
2022-09-23T19:52:53.884Z,8.83
2022-09-23T19:55:21.999Z,8.87
2022-09-23T19:57:50.168Z,8.87
2022-09-23T20:00:18.975Z,8.86
2022-09-23T20:02:47.365Z,8.73
2022-09-23T20:05:19.713Z,8.49
2022-09-23T20:07:48.873Z,8.48
2022-09-23T20:10:18.670Z,8.52
2022-09-23T20:12:47.010Z,8.61
2022-09-23T20:15:18.471Z,8.37
2022-09-23T20:17:46.910Z,8.08
2022-09-23T20:20:15.936Z,8.21
2022-09-23T20:22:46.896Z,8.21
2022-09-23T20:25:15.110Z,8.07
2022-09-23T20:27:48.239Z,8.13
2022-09-23T20:30:16.907Z,8.15
2022-09-23T20:32:46.157Z,8.18
2022-09-23T20:35:16.464Z,8.14
2022-09-23T20:37:47.106Z,8.13
2022-09-23T20:40:15.616Z,8.18
2022-09-23T20:42:45.569Z,7.97
2022-09-23T20:45:13.934Z,8.03
2022-09-23T20:47:42.303Z,8.07
2022-09-23T20:50:12.251Z,7.94
2022-09-23T20:52:42.446Z,8.05
2022-09-23T20:55:10.930Z,7.93
2022-09-23T20:57:39.306Z,7.72
2022-09-23T21:00:09.874Z,7.56
2022-09-23T21:02:38.026Z,6.77
2022-09-23T21:05:10.577Z,7.05
2022-09-23T21:07:38.738Z,7.18
2022-09-23T21:10:08.868Z,7.21
2022-09-23T21:12:37.253Z,7.05
2022-09-23T21:15:06.334Z,7.17
2022-09-23T21:17:35.879Z,7.08
2022-09-23T21:20:05.609Z,6.83
2022-09-23T21:22:33.929Z,6.89
2022-09-23T21:27:53.962Z,6.86
2022-09-23T21:30:23.041Z,6.81
2022-09-23T21:32:52.469Z,6.97
2022-09-23T21:35:23.647Z,7.11
2022-09-23T21:37:57.598Z,7.17
2022-09-23T21:40:43.418Z,7.18
2022-09-23T21:43:12.246Z,7.19
2022-09-23T21:45:40.350Z,6.99
2022-09-23T21:48:10.025Z,6.66
2022-09-23T21:50:40.941Z,6.79
2022-09-23T21:53:09.197Z,6.97
2022-09-23T21:55:37.596Z,7.10
2022-09-23T21:58:05.796Z,6.87
2022-09-23T22:00:33.994Z,6.66
2022-09-23T22:03:02.243Z,6.56
2022-09-23T22:05:32.246Z,6.41
2022-09-23T22:08:00.419Z,6.57
2022-09-23T22:10:28.852Z,6.43
2022-09-23T22:12:58.397Z,6.59
2022-09-23T22:15:27.671Z,6.57
2022-09-23T22:17:55.826Z,6.61
2022-09-23T22:20:25.059Z,6.72
2022-09-23T22:22:54.543Z,6.70
2022-09-23T22:25:22.620Z,6.77
2022-09-23T22:28:09.405Z,6.75
2022-09-23T22:31:01.326Z,6.70
2022-09-23T22:33:31.667Z,6.46
2022-09-23T22:36:02.874Z,6.22
2022-09-23T22:38:33.007Z,6.28
2022-09-23T22:41:03.510Z,6.08
2022-09-23T22:43:34.020Z,6.18
2022-09-23T22:46:03.067Z,6.26
2022-09-23T22:48:32.252Z,6.18
2022-09-23T22:51:10.415Z,6.24
2022-09-23T22:53:39.809Z,6.07
2022-09-23T22:56:09.981Z,5.90
2022-09-23T22:58:38.172Z,5.90
2022-09-23T23:01:06.401Z,5.94
2022-09-23T23:03:36.374Z,5.86
2022-09-23T23:06:05.437Z,5.84
2022-09-23T23:08:33.645Z,5.87
2022-09-23T23:11:07.312Z,5.97
2022-09-23T23:13:42.040Z,6.01
2022-09-23T23:16:13.204Z,6.11
2022-09-23T23:18:43.406Z,6.10
2022-09-23T23:21:14.092Z,6.03
2022-09-23T23:23:44.969Z,5.94
2022-09-23T23:26:16.394Z,5.86
2022-09-23T23:28:45.687Z,5.83
2022-09-23T23:31:16.245Z,5.60
2022-09-23T23:33:46.883Z,5.60
2022-09-23T23:36:17.738Z,5.74
2022-09-23T23:38:47.316Z,5.78
2022-09-23T23:41:19.670Z,5.66
2022-09-23T23:43:49.133Z,5.62
2022-09-23T23:46:18.316Z,5.66
2022-09-23T23:48:48.536Z,5.56
2022-09-23T23:51:16.901Z,5.53
2022-09-23T23:53:45.208Z,5.56
2022-09-23T23:56:16.529Z,5.55
2022-09-23T23:58:53.992Z,5.48
